Kaldármelar Airport

Jump to: basic info | weather | comments

Related pages: nearby airports | nearby navaids | notams | map

Basic information (top)

Codes: BIKA
Location: lon 64.778900, lat -22.256901, elev 160 ft / 49 m msl
Status: small_airport

Weather (top)

Current conditions for Reykjavik Airport 40nm (74km) SSE (rec'd 2014/12/17 21:00Z):

BIRK 172100Z 24021KT 9999 FEW023 BKN040 00/M06 Q0963 R19790246

Airport forecast for Reykjavik Airport 40nm (74km) SSE (rec'd 2014/12/17 21:57Z):

TAF BIRK 171954Z 1721/1821 23022G35KT 9999 SCT030 BKN040 TXM00/1721Z TNM04/1815Z 
      TEMPO 1721/1724 1000 SHSN BKN010CB 
      BECMG 1721/1723 23015KT 
      TEMPO 1800/1815 2500 SHSN BKN020CB 
      BECMG 1809/1812 09010KT 
      BECMG 1815/1818 35015KT

Latest comments (top)

No comments yet for Kaldármelar Airport

More... (top)

See also NOTAMs and nearby airports and navaids, or visit the Kaldármelar Airport page at the main OurAirports website..